Clear Creek, California
Current Conditions -  °F | °C
As of 3:15 AM on Tuesday 21 Oct 2014 (Local Time) from KCIC Reporting Station
Clear Clear  
Wind Chill: 54°   Ceiling: Unl
Heat Index: 54°   Visibility: 10mi
Dew Point: 46°   Wind: 3mph
Humidity: 77%   Direction: 50°NE
Pressure: 30.08"   Gusts: NA
Location:  40.2872°N, 121.096°W
Report Text: KCIC 211015Z AUTO 05003KT 10SM CLR 12/08 A3008 RMK AO1
Loading
Personal Weather Stations






























Interactive Weather Map
Tropical Storm Tracking
New forecast layout! Learn more

10-Day Weather Forecast

Advertisements
Track Severe Weather on mobile